TGL226 LFML-LFKC
Flight info
| Callsign | TGL226 |
|---|---|
| Flight time | N/A |
| Altitude | 23000 |
| Route | NASIK P856 RAPED DCT DIVUL P856 NIRDO |
| Aircraft | B738/M-SDE2E3FGHIRWXY/LB1 |
Departure
| Time | 2026-04-29 11:19 |
|---|---|
| Airport | Marseille Provence Airport (LFML) |
Arrival
| Time | N/A |
|---|---|
| Airport | Calvi Sainte Catherine Airport (LFKC) |
| Time | Latitude | Longitude | Altitude | Speed | Heading |
|---|---|---|---|---|---|
| 2026-04-29 10:36 | 43.44024 | 5.22112 | 39 ft | 0 kts | 61° |
| 2026-04-29 11:02 | 43.44018 | 5.22098 | 41 ft | 4 kts | 59° |
| 2026-04-29 11:02 | 43.44008 | 5.22074 | 39 ft | 4 kts | 66° |
| 2026-04-29 11:02 | 43.44002 | 5.22044 | 40 ft | 4 kts | 90° |
| 2026-04-29 11:02 | 43.44006 | 5.22015 | 40 ft | 4 kts | 127° |
| 2026-04-29 11:03 | 43.44009 | 5.22009 | 40 ft | 3 kts | 133° |
| 2026-04-29 11:11 | 43.43994 | 5.22032 | 40 ft | 4 kts | 133° |
| 2026-04-29 11:11 | 43.43973 | 5.22060 | 41 ft | 4 kts | 134° |
| 2026-04-29 11:11 | 43.43954 | 5.22089 | 42 ft | 4 kts | 134° |
| 2026-04-29 11:12 | 43.43934 | 5.22116 | 42 ft | 4 kts | 136° |
| 2026-04-29 11:12 | 43.43913 | 5.22141 | 43 ft | 4 kts | 146° |
| 2026-04-29 11:12 | 43.43886 | 5.22149 | 43 ft | 4 kts | 185° |
| 2026-04-29 11:12 | 43.43861 | 5.22130 | 42 ft | 4 kts | 219° |
| 2026-04-29 11:13 | 43.43840 | 5.22103 | 44 ft | 4 kts | 224° |
| 2026-04-29 11:13 | 43.43819 | 5.22075 | 44 ft | 4 kts | 223° |
| 2026-04-29 11:13 | 43.43796 | 5.22051 | 42 ft | 4 kts | 207° |
| 2026-04-29 11:13 | 43.43758 | 5.22033 | 44 ft | 11 kts | 192° |
| 2026-04-29 11:14 | 43.43690 | 5.22071 | 46 ft | 11 kts | 146° |
| 2026-04-29 11:14 | 43.43626 | 5.22120 | 48 ft | 10 kts | 152° |
| 2026-04-29 11:14 | 43.43564 | 5.22166 | 49 ft | 10 kts | 150° |
| 2026-04-29 11:14 | 43.43505 | 5.22215 | 49 ft | 10 kts | 147° |
| 2026-04-29 11:15 | 43.43446 | 5.22260 | 52 ft | 10 kts | 152° |
| 2026-04-29 11:15 | 43.43384 | 5.22269 | 53 ft | 9 kts | 199° |
| 2026-04-29 11:15 | 43.43337 | 5.22214 | 51 ft | 9 kts | 251° |
| 2026-04-29 11:15 | 43.43335 | 5.22199 | 49 ft | 0 kts | 259° |
| 2026-04-29 11:17 | 43.43334 | 5.22178 | 50 ft | 7 kts | 266° |
| 2026-04-29 11:17 | 43.43334 | 5.22089 | 54 ft | 10 kts | 270° |
| 2026-04-29 11:17 | 43.43341 | 5.21993 | 50 ft | 10 kts | 286° |
| 2026-04-29 11:18 | 43.43383 | 5.21908 | 50 ft | 11 kts | 307° |
| 2026-04-29 11:18 | 43.43436 | 5.21832 | 49 ft | 12 kts | 314° |
| 2026-04-29 11:18 | 43.43525 | 5.21703 | 44 ft | 31 kts | 313° |
| 2026-04-29 11:18 | 43.43862 | 5.21232 | 39 ft | 104 kts | 314° |
| 2026-04-29 11:19 | 43.44513 | 5.20325 | 84 ft | 154 kts | 316° |
| 2026-04-29 11:19 | 43.45284 | 5.19302 | 694 ft | 155 kts | 312° |
| 2026-04-29 11:19 | 43.46088 | 5.18186 | 1045 ft | 179 kts | 314° |
| 2026-04-29 11:19 | 43.47041 | 5.16876 | 1366 ft | 206 kts | 314° |
| 2026-04-29 11:20 | 43.48031 | 5.15478 | 2134 ft | 211 kts | 315° |
| 2026-04-29 11:20 | 43.49116 | 5.13961 | 2493 ft | 229 kts | 315° |
| 2026-04-29 11:20 | 43.50237 | 5.12380 | 3168 ft | 235 kts | 316° |
| 2026-04-29 11:20 | 43.51403 | 5.10750 | 3956 ft | 241 kts | 315° |
| 2026-04-29 11:21 | 43.52579 | 5.09106 | 4838 ft | 238 kts | 315° |
| 2026-04-29 11:21 | 43.53773 | 5.07548 | 5526 ft | 241 kts | 329° |
| 2026-04-29 11:21 | 43.55362 | 5.07011 | 6202 ft | 237 kts | 11° |
| 2026-04-29 11:21 | 43.56828 | 5.07971 | 6852 ft | 237 kts | 46° |
| 2026-04-29 11:22 | 43.57770 | 5.09799 | 7473 ft | 235 kts | 72° |
| 2026-04-29 11:22 | 43.58020 | 5.12016 | 8112 ft | 234 kts | 99° |
| 2026-04-29 11:22 | 43.57587 | 5.14179 | 8777 ft | 235 kts | 113° |
| 2026-04-29 11:22 | 43.56971 | 5.16250 | 9463 ft | 237 kts | 115° |
| 2026-04-29 11:23 | 43.56320 | 5.18361 | 9944 ft | 239 kts | 115° |
| 2026-04-29 11:23 | 43.55663 | 5.20501 | 9991 ft | 240 kts | 115° |
| 2026-04-29 11:23 | 43.55023 | 5.22598 | 10022 ft | 241 kts | 115° |
| 2026-04-29 11:23 | 43.54370 | 5.24750 | 10017 ft | 243 kts | 115° |
| 2026-04-29 11:24 | 43.53713 | 5.26926 | 10226 ft | 247 kts | 115° |
| 2026-04-29 11:24 | 43.53051 | 5.29127 | 10884 ft | 248 kts | 115° |
| 2026-04-29 11:24 | 43.52396 | 5.31306 | 11580 ft | 249 kts | 115° |
| 2026-04-29 11:24 | 43.51726 | 5.33532 | 12217 ft | 253 kts | 115° |
| 2026-04-29 11:25 | 43.51036 | 5.35817 | 12816 ft | 261 kts | 114° |
| 2026-04-29 11:25 | 43.50360 | 5.38148 | 13328 ft | 273 kts | 112° |
| 2026-04-29 11:25 | 43.49684 | 5.40724 | 13515 ft | 298 kts | 111° |
| 2026-04-29 11:25 | 43.48968 | 5.43527 | 13702 ft | 322 kts | 112° |
| 2026-04-29 11:26 | 43.47379 | 5.49734 | 14229 ft | 359 kts | 111° |
| 2026-04-29 11:26 | 43.46546 | 5.52968 | 14823 ft | 365 kts | 111° |
| 2026-04-29 11:26 | 43.45687 | 5.56287 | 15457 ft | 370 kts | 111° |
| 2026-04-29 11:27 | 43.44812 | 5.59658 | 16118 ft | 374 kts | 111° |
| 2026-04-29 11:27 | 43.43927 | 5.63056 | 16831 ft | 377 kts | 111° |
| 2026-04-29 11:27 | 43.43047 | 5.66429 | 17491 ft | 381 kts | 111° |
| 2026-04-29 11:27 | 43.42141 | 5.69891 | 18112 ft | 387 kts | 111° |
| 2026-04-29 11:28 | 43.41355 | 5.73465 | 18689 ft | 392 kts | 98° |
| 2026-04-29 11:28 | 43.41347 | 5.77180 | 19576 ft | 385 kts | 87° |
| 2026-04-29 11:28 | 43.41510 | 5.80855 | 20343 ft | 384 kts | 87° |
| 2026-04-29 11:28 | 43.41668 | 5.84525 | 20878 ft | 389 kts | 87° |
| 2026-04-29 11:29 | 43.41816 | 5.88203 | 21895 ft | 378 kts | 87° |
| 2026-04-29 11:29 | 43.41952 | 5.91815 | 22615 ft | 379 kts | 87° |
| 2026-04-29 11:29 | 43.42079 | 5.95390 | 23003 ft | 377 kts | 87° |
| 2026-04-29 11:29 | 43.42203 | 5.99022 | 23007 ft | 382 kts | 88° |
| 2026-04-29 11:30 | 43.42325 | 6.02664 | 23025 ft | 386 kts | 88° |
| 2026-04-29 11:30 | 43.42447 | 6.06366 | 23014 ft | 383 kts | 88° |
| 2026-04-29 11:30 | 43.42566 | 6.10017 | 23005 ft | 380 kts | 88° |
| 2026-04-29 11:30 | 43.42682 | 6.13618 | 23019 ft | 382 kts | 88° |
| 2026-04-29 11:31 | 43.42801 | 6.17297 | 23036 ft | 384 kts | 88° |
| 2026-04-29 11:31 | 43.42918 | 6.20970 | 23020 ft | 385 kts | 88° |
| 2026-04-29 11:31 | 43.43034 | 6.24649 | 23033 ft | 386 kts | 88° |
| 2026-04-29 11:31 | 43.43081 | 6.28317 | 23019 ft | 386 kts | 93° |
| 2026-04-29 11:32 | 43.42838 | 6.32000 | 23021 ft | 386 kts | 98° |
| 2026-04-29 11:32 | 43.42468 | 6.35683 | 23023 ft | 386 kts | 99° |
| 2026-04-29 11:32 | 43.42078 | 6.39300 | 23025 ft | 385 kts | 99° |
| 2026-04-29 11:32 | 43.41692 | 6.42966 | 23010 ft | 385 kts | 98° |
| 2026-04-29 11:33 | 43.41324 | 6.46619 | 23029 ft | 384 kts | 98° |
| 2026-04-29 11:33 | 43.40974 | 6.50227 | 23031 ft | 384 kts | 98° |
| 2026-04-29 11:33 | 43.40630 | 6.53862 | 23021 ft | 383 kts | 98° |
| 2026-04-29 11:33 | 43.40291 | 6.57496 | 23028 ft | 382 kts | 98° |
| 2026-04-29 11:34 | 43.39955 | 6.61115 | 23040 ft | 381 kts | 97° |
| 2026-04-29 11:34 | 43.39619 | 6.64728 | 23031 ft | 380 kts | 98° |
| 2026-04-29 11:34 | 43.39282 | 6.68333 | 23030 ft | 380 kts | 97° |
| 2026-04-29 11:34 | 43.38945 | 6.71929 | 23045 ft | 379 kts | 98° |
| 2026-04-29 11:35 | 43.38610 | 6.75487 | 23044 ft | 379 kts | 98° |
| 2026-04-29 11:35 | 43.38269 | 6.79099 | 23032 ft | 380 kts | 98° |
| 2026-04-29 11:35 | 43.37928 | 6.82713 | 23046 ft | 380 kts | 98° |
| 2026-04-29 11:35 | 43.37584 | 6.86327 | 23042 ft | 380 kts | 98° |
| 2026-04-29 11:36 | 43.37243 | 6.89897 | 23039 ft | 382 kts | 98° |
| 2026-04-29 11:36 | 43.36894 | 6.93558 | 23065 ft | 395 kts | 98° |
| 2026-04-29 11:36 | 43.36532 | 6.97372 | 23061 ft | 410 kts | 98° |
| 2026-04-29 11:36 | 43.36154 | 7.01342 | 23057 ft | 424 kts | 98° |
| 2026-04-29 11:37 | 43.35763 | 7.05433 | 23061 ft | 437 kts | 98° |
| 2026-04-29 11:37 | 43.35365 | 7.09590 | 23051 ft | 449 kts | 98° |
| 2026-04-29 11:37 | 43.34950 | 7.13904 | 23046 ft | 460 kts | 98° |
| 2026-04-29 11:37 | 43.34523 | 7.18326 | 23047 ft | 469 kts | 98° |
| 2026-04-29 11:38 | 43.34088 | 7.22810 | 23038 ft | 478 kts | 98° |
| 2026-04-29 11:38 | 43.33643 | 7.27383 | 23030 ft | 486 kts | 98° |
| 2026-04-29 11:38 | 43.33189 | 7.32023 | 23035 ft | 491 kts | 98° |
| 2026-04-29 11:38 | 43.32743 | 7.36563 | 23011 ft | 478 kts | 98° |
| 2026-04-29 11:39 | 43.32294 | 7.41111 | 23029 ft | 480 kts | 98° |
| 2026-04-29 11:39 | 43.31846 | 7.45633 | 23036 ft | 487 kts | 98° |
| 2026-04-29 11:39 | 43.31383 | 7.50286 | 23031 ft | 493 kts | 98° |
| 2026-04-29 11:39 | 43.30922 | 7.54916 | 23021 ft | 479 kts | 98° |
| 2026-04-29 11:40 | 43.30472 | 7.59401 | 22441 ft | 470 kts | 98° |
| 2026-04-29 11:40 | 43.29984 | 7.63752 | 21798 ft | 463 kts | 101° |
| 2026-04-29 11:40 | 43.29263 | 7.68037 | 21168 ft | 457 kts | 104° |
| 2026-04-29 11:40 | 43.28445 | 7.72242 | 20535 ft | 452 kts | 105° |
| 2026-04-29 11:41 | 43.27608 | 7.76385 | 19924 ft | 447 kts | 106° |
| 2026-04-29 11:41 | 43.26791 | 7.80443 | 19337 ft | 442 kts | 105° |
| 2026-04-29 11:41 | 43.25989 | 7.84500 | 18749 ft | 438 kts | 105° |
| 2026-04-29 11:41 | 43.25204 | 7.88542 | 18145 ft | 435 kts | 105° |
| 2026-04-29 11:42 | 43.24436 | 7.92538 | 17489 ft | 431 kts | 105° |
| 2026-04-29 11:42 | 43.23689 | 7.96451 | 16848 ft | 427 kts | 105° |
| 2026-04-29 11:42 | 43.22939 | 8.00380 | 16205 ft | 424 kts | 105° |
| 2026-04-29 11:42 | 43.22192 | 8.04288 | 15582 ft | 420 kts | 105° |
| 2026-04-29 11:43 | 43.21460 | 8.08109 | 14988 ft | 416 kts | 105° |
| 2026-04-29 11:43 | 43.20722 | 8.11947 | 14383 ft | 413 kts | 106° |
| 2026-04-29 11:43 | 43.19988 | 8.15759 | 13789 ft | 410 kts | 106° |
| 2026-04-29 11:43 | 43.19260 | 8.19532 | 13140 ft | 407 kts | 106° |
| 2026-04-29 11:44 | 43.18547 | 8.23216 | 12503 ft | 403 kts | 106° |
| 2026-04-29 11:44 | 43.17827 | 8.26928 | 11872 ft | 401 kts | 106° |
| 2026-04-29 11:44 | 43.17113 | 8.30606 | 11255 ft | 397 kts | 106° |
| 2026-04-29 11:44 | 43.16405 | 8.34251 | 10629 ft | 394 kts | 106° |
| 2026-04-29 11:45 | 43.15702 | 8.37864 | 10231 ft | 386 kts | 107° |
| 2026-04-29 11:45 | 43.15022 | 8.41349 | 10095 ft | 371 kts | 107° |
| 2026-04-29 11:45 | 43.14168 | 8.44536 | 10019 ft | 353 kts | 121° |
| 2026-04-29 11:45 | 43.12826 | 8.47244 | 10023 ft | 334 kts | 129° |
| 2026-04-29 11:46 | 43.11442 | 8.49703 | 9986 ft | 319 kts | 131° |
| 2026-04-29 11:46 | 43.10110 | 8.52049 | 9981 ft | 305 kts | 130° |
| 2026-04-29 11:46 | 43.08830 | 8.54329 | 9758 ft | 300 kts | 130° |
| 2026-04-29 11:46 | 43.07993 | 8.55835 | 9509 ft | 300 kts | 130° |
| 2026-04-29 11:47 | 43.06329 | 8.58859 | 9001 ft | 300 kts | 129° |
| 2026-04-29 11:47 | 43.05078 | 8.61150 | 8621 ft | 300 kts | 128° |
| 2026-04-29 11:47 | 43.04250 | 8.62672 | 8372 ft | 300 kts | 129° |
| 2026-04-29 11:47 | 43.02596 | 8.65717 | 7879 ft | 300 kts | 129° |
| 2026-04-29 11:48 | 43.01349 | 8.68016 | 7505 ft | 301 kts | 129° |
| 2026-04-29 11:48 | 43.00523 | 8.69538 | 7269 ft | 301 kts | 129° |
| 2026-04-29 11:48 | 42.99275 | 8.71837 | 6905 ft | 300 kts | 128° |
| 2026-04-29 11:48 | 42.98026 | 8.74135 | 6551 ft | 300 kts | 128° |
| 2026-04-29 11:49 | 42.96782 | 8.76420 | 6180 ft | 299 kts | 129° |
| 2026-04-29 11:49 | 42.95308 | 8.78334 | 5776 ft | 295 kts | 153° |
| 2026-04-29 11:49 | 42.93371 | 8.79180 | 5414 ft | 291 kts | 175° |
| 2026-04-29 11:49 | 42.91353 | 8.79243 | 5051 ft | 289 kts | 181° |
| 2026-04-29 11:50 | 42.89337 | 8.79236 | 4670 ft | 289 kts | 180° |
| 2026-04-29 11:50 | 42.87355 | 8.79221 | 4293 ft | 288 kts | 180° |
| 2026-04-29 11:50 | 42.85336 | 8.79211 | 3919 ft | 288 kts | 180° |
| 2026-04-29 11:50 | 42.83332 | 8.79206 | 3539 ft | 288 kts | 179° |
| 2026-04-29 11:51 | 42.81327 | 8.79204 | 3174 ft | 287 kts | 178° |
| 2026-04-29 11:51 | 42.79341 | 8.79204 | 3011 ft | 280 kts | 178° |
| 2026-04-29 11:51 | 42.77461 | 8.79205 | 2989 ft | 267 kts | 179° |
| 2026-04-29 11:51 | 42.75642 | 8.79207 | 2976 ft | 254 kts | 179° |
| 2026-04-29 11:52 | 42.73908 | 8.79208 | 2974 ft | 242 kts | 178° |
| 2026-04-29 11:52 | 42.72215 | 8.79210 | 2725 ft | 242 kts | 179° |
| 2026-04-29 11:52 | 42.70595 | 8.79212 | 2744 ft | 229 kts | 179° |
| 2026-04-29 11:52 | 42.69027 | 8.79210 | 2797 ft | 221 kts | 179° |
| 2026-04-29 11:53 | 42.67526 | 8.79206 | 2779 ft | 208 kts | 179° |
| 2026-04-29 11:53 | 42.66132 | 8.79222 | 2719 ft | 195 kts | 178° |
| 2026-04-29 11:53 | 42.64787 | 8.79251 | 2454 ft | 191 kts | 179° |
| 2026-04-29 11:53 | 42.63479 | 8.79302 | 2170 ft | 189 kts | 176° |
| 2026-04-29 11:54 | 42.62134 | 8.79381 | 1661 ft | 198 kts | 178° |
| 2026-04-29 11:54 | 42.60767 | 8.79429 | 1310 ft | 193 kts | 179° |
| 2026-04-29 11:54 | 42.59491 | 8.79475 | 1215 ft | 170 kts | 178° |
| 2026-04-29 11:54 | 42.58361 | 8.79534 | 1131 ft | 165 kts | 180° |
| 2026-04-29 11:55 | 42.57252 | 8.79463 | 1030 ft | 160 kts | 185° |
| 2026-04-29 11:55 | 42.56140 | 8.79339 | 734 ft | 162 kts | 184° |
| 2026-04-29 11:55 | 42.55003 | 8.79308 | 452 ft | 164 kts | 184° |
| 2026-04-29 11:55 | 42.53874 | 8.79306 | 204 ft | 158 kts | 182° |
| 2026-04-29 11:56 | 42.52817 | 8.79316 | 218 ft | 153 kts | 179° |
| 2026-04-29 11:56 | 42.52208 | 8.79293 | 246 ft | 113 kts | 179° |